Kingsland, Arkansas
Current Conditions -  °F | °C
As of 5:53 PM on Thursday 18 Dec 2014 (Local Time) from KPBF Reporting Station
Overcast Overcast  
Wind Chill: 39°   Ceiling: 700
Heat Index: 43°   Visibility: 8mi
Dew Point: 40°   Wind: 7mph
Humidity: 89%   Direction: 20°NNE
Pressure: 30.2"   Gusts: NA
Location:  33.86°N, 92.29°W
Report Text: KPBF 182353Z AUTO 02006KT 8SM OVC007 06/04 A3020 RMK AO2 CIG 006V010 SLP225 T00610044 10072 20061 53008
Loading
Personal Weather Stations






























Interactive Weather Map New forecast layout! Learn more

10-Day Weather Forecast

Advertisements
Track Severe Weather on mobile